首页
METAR-TAF:

METAR-TAF

机场 :

Lydd, 英格兰

纬度: 50-57N, 经度: 000-56E, 海拔: 3米

当前天气观测

该预报发布于20分钟前的23:20 UTC
风速4节,风向北转西北
温度 3°C
湿度 100%
气压 1029 hPa
能見度: 2900
轻雾

METAR: EGMD 022320Z AUTO 34004KT 2900 BR NCD 03/03 Q1029

时间: 23:40 (23:40 UTC)

预报

该预报发布于43分钟前的22:57 UTC
预报有效从03日的 00点(UTC)到 03日的 09点(UTC)
风速4节,风向
能見度: 2000
少量云层高于500英尺
轻雾
几率 40% :
短暂存在
从 03日的 00点(UTC)到 03日的 09点(UTC)
能見度: 0300
多云层高于100英尺

TAF: EGMD 022257Z 0300/0309 01004KT 2000 BR FEW005 PROB40 TEMPO 0300/0309 0300 FG BKN001

超过4000个机场的气象观测和天气预报(METAR&TAF报告)。

可查询的气象台以黄色和红色小点在地图上表示。

将鼠标移到小点上方,可查看气象台名称。

然后点击查看天气观测和预报。

如需切换地图:点击带黑十字的绿色按钮放大地图;点击带横线的绿色按钮缩小地图;或者点击绿色箭头查看邻近地区的地图。


METAR-TAF: